sensor_id;sensor_type;location;lat;lon;timestamp;P1;durP1;ratioP1;P2;durP2;ratioP2
72882;SDS011;61017;37.812;-122.286;2023-10-09T00:01:16;2.35;;;1.20;;
72882;SDS011;61017;37.812;-122.286;2023-10-09T00:02:47;3.53;;;1.02;;
72882;SDS011;61017;37.812;-122.286;2023-10-09T00:04:19;2.33;;;1.10;;
72882;SDS011;61017;37.812;-122.286;2023-10-09T00:05:51;2.03;;;1.00;;
72882;SDS011;61017;37.812;-122.286;2023-10-09T00:07:22;2.60;;;1.00;;
72882;SDS011;61017;37.812;-122.286;2023-10-09T00:08:54;1.85;;;1.25;;
72882;SDS011;61017;37.812;-122.286;2023-10-09T00:10:26;1.92;;;1.17;;
72882;SDS011;61017;37.812;-122.286;2023-10-09T00:11:57;1.48;;;1.05;;
72882;SDS011;61017;37.812;-122.286;2023-10-09T00:13:29;3.28;;;1.20;;
72882;SDS011;61017;37.812;-122.286;2023-10-09T00:15:01;3.30;;;1.20;;
72882;SDS011;61017;37.812;-122.286;2023-10-09T00:16:36;2.35;;;1.13;;
72882;SDS011;61017;37.812;-122.286;2023-10-09T00:18:07;1.73;;;1.20;;
72882;SDS011;61017;37.812;-122.286;2023-10-09T00:19:39;1.90;;;1.10;;
72882;SDS011;61017;37.812;-122.286;2023-10-09T00:21:14;2.47;;;1.10;;
72882;SDS011;61017;37.812;-122.286;2023-10-09T00:22:49;1.50;;;1.00;;
72882;SDS011;61017;37.812;-122.286;2023-10-09T00:24:20;1.95;;;1.15;;
72882;SDS011;61017;37.812;-122.286;2023-10-09T00:25:52;2.40;;;1.10;;
72882;SDS011;61017;37.812;-122.286;2023-10-09T00:27:23;2.65;;;1.17;;
72882;SDS011;61017;37.812;-122.286;2023-10-09T00:28:55;1.92;;;1.20;;
72882;SDS011;61017;37.812;-122.286;2023-10-09T00:30:26;2.33;;;1.20;;
72882;SDS011;61017;37.812;-122.286;2023-10-09T00:31:58;2.92;;;1.10;;
72882;SDS011;61017;37.812;-122.286;2023-10-09T00:33:30;2.00;;;1.35;;
72882;SDS011;61017;37.812;-122.286;2023-10-09T00:35:01;2.55;;;1.30;;
72882;SDS011;61017;37.812;-122.286;2023-10-09T00:36:33;2.10;;;1.00;;
72882;SDS011;61017;37.812;-122.286;2023-10-09T00:38:05;2.13;;;1.27;;
72882;SDS011;61017;37.812;-122.286;2023-10-09T00:39:38;1.70;;;1.17;;
72882;SDS011;61017;37.812;-122.286;2023-10-09T00:41:10;1.92;;;1.20;;
72882;SDS011;61017;37.812;-122.286;2023-10-09T00:42:41;2.30;;;1.42;;
72882;SDS011;61017;37.812;-122.286;2023-10-09T00:44:13;1.60;;;1.10;;
72882;SDS011;61017;37.812;-122.286;2023-10-09T00:45:44;1.92;;;1.25;;
72882;SDS011;61017;37.812;-122.286;2023-10-09T00:47:17;2.65;;;1.30;;
72882;SDS011;61017;37.812;-122.286;2023-10-09T00:48:53;2.28;;;1.58;;
72882;SDS011;61017;37.812;-122.286;2023-10-09T00:50:26;3.15;;;1.35;;
72882;SDS011;61017;37.812;-122.286;2023-10-09T00:51:58;2.13;;;1.30;;
72882;SDS011;61017;37.812;-122.286;2023-10-09T00:53:29;4.13;;;1.38;;
72882;SDS011;61017;37.812;-122.286;2023-10-09T00:55:01;2.80;;;1.27;;
72882;SDS011;61017;37.812;-122.286;2023-10-09T00:56:35;2.05;;;1.23;;
72882;SDS011;61017;37.812;-122.286;2023-10-09T00:58:07;1.73;;;1.02;;
72882;SDS011;61017;37.812;-122.286;2023-10-09T00:59:41;2.85;;;1.20;;
72882;SDS011;61017;37.812;-122.286;2023-10-09T01:01:13;2.00;;;1.30;;
72882;SDS011;61017;37.812;-122.286;2023-10-09T01:02:45;2.50;;;1.50;;
72882;SDS011;61017;37.812;-122.286;2023-10-09T01:04:16;2.58;;;1.40;;
72882;SDS011;61017;37.812;-122.286;2023-10-09T01:05:53;2.17;;;1.30;;
72882;SDS011;61017;37.812;-122.286;2023-10-09T01:07:27;2.20;;;1.20;;
72882;SDS011;61017;37.812;-122.286;2023-10-09T01:08:58;2.03;;;1.40;;
72882;SDS011;61017;37.812;-122.286;2023-10-09T01:10:43;2.40;;;1.27;;
72882;SDS011;61017;37.812;-122.286;2023-10-09T01:12:15;2.33;;;1.45;;
72882;SDS011;61017;37.812;-122.286;2023-10-09T01:13:47;2.13;;;1.20;;
72882;SDS011;61017;37.812;-122.286;2023-10-09T01:15:19;2.20;;;1.40;;
72882;SDS011;61017;37.812;-122.286;2023-10-09T01:16:51;3.20;;;1.30;;
72882;SDS011;61017;37.812;-122.286;2023-10-09T01:18:23;2.03;;;1.23;;
72882;SDS011;61017;37.812;-122.286;2023-10-09T01:19:57;2.15;;;1.20;;
72882;SDS011;61017;37.812;-122.286;2023-10-09T01:21:28;2.00;;;1.43;;
72882;SDS011;61017;37.812;-122.286;2023-10-09T01:23:01;1.85;;;1.35;;
72882;SDS011;61017;37.812;-122.286;2023-10-09T01:24:33;2.10;;;1.30;;
72882;SDS011;61017;37.812;-122.286;2023-10-09T01:26:05;2.30;;;1.50;;
72882;SDS011;61017;37.812;-122.286;2023-10-09T01:27:36;2.05;;;1.17;;
72882;SDS011;61017;37.812;-122.286;2023-10-09T01:29:08;2.88;;;1.30;;
72882;SDS011;61017;37.812;-122.286;2023-10-09T01:31:00;2.35;;;1.40;;
72882;SDS011;61017;37.812;-122.286;2023-10-09T01:32:32;2.63;;;1.30;;
72882;SDS011;61017;37.812;-122.286;2023-10-09T01:34:04;2.67;;;1.50;;
72882;SDS011;61017;37.812;-122.286;2023-10-09T01:35:36;2.05;;;1.30;;
72882;SDS011;61017;37.812;-122.286;2023-10-09T01:37:08;1.98;;;1.40;;
72882;SDS011;61017;37.812;-122.286;2023-10-09T01:38:42;2.83;;;1.30;;
72882;SDS011;61017;37.812;-122.286;2023-10-09T01:40:13;2.30;;;1.50;;
72882;SDS011;61017;37.812;-122.286;2023-10-09T01:41:45;2.95;;;1.50;;
72882;SDS011;61017;37.812;-122.286;2023-10-09T01:43:21;2.33;;;1.42;;
72882;SDS011;61017;37.812;-122.286;2023-10-09T01:44:52;2.70;;;1.50;;
72882;SDS011;61017;37.812;-122.286;2023-10-09T01:46:24;2.67;;;1.60;;
72882;SDS011;61017;37.812;-122.286;2023-10-09T01:47:55;1.92;;;1.40;;
72882;SDS011;61017;37.812;-122.286;2023-10-09T01:49:27;2.70;;;1.40;;
72882;SDS011;61017;37.812;-122.286;2023-10-09T01:50:59;3.35;;;1.45;;
72882;SDS011;61017;37.812;-122.286;2023-10-09T01:52:30;2.08;;;1.40;;
72882;SDS011;61017;37.812;-122.286;2023-10-09T01:54:02;2.47;;;1.40;;
72882;SDS011;61017;37.812;-122.286;2023-10-09T01:55:39;2.10;;;1.42;;
72882;SDS011;61017;37.812;-122.286;2023-10-09T01:57:11;2.30;;;1.50;;
72882;SDS011;61017;37.812;-122.286;2023-10-09T01:58:43;2.33;;;1.50;;
72882;SDS011;61017;37.812;-122.286;2023-10-09T02:00:14;2.03;;;1.48;;
72882;SDS011;61017;37.812;-122.286;2023-10-09T02:01:46;2.33;;;1.30;;
72882;SDS011;61017;37.812;-122.286;2023-10-09T02:03:18;1.85;;;1.30;;
72882;SDS011;61017;37.812;-122.286;2023-10-09T02:04:49;2.30;;;1.50;;
72882;SDS011;61017;37.812;-122.286;2023-10-09T02:06:21;2.73;;;1.60;;
72882;SDS011;61017;37.812;-122.286;2023-10-09T02:07:53;2.10;;;1.40;;
72882;SDS011;61017;37.812;-122.286;2023-10-09T02:09:24;3.17;;;1.35;;
72882;SDS011;61017;37.812;-122.286;2023-10-09T02:10:56;2.50;;;1.50;;
72882;SDS011;61017;37.812;-122.286;2023-10-09T02:12:27;1.98;;;1.38;;
72882;SDS011;61017;37.812;-122.286;2023-10-09T02:13:59;2.13;;;1.50;;
72882;SDS011;61017;37.812;-122.286;2023-10-09T02:15:34;2.55;;;1.40;;
72882;SDS011;61017;37.812;-122.286;2023-10-09T02:17:13;2.38;;;1.33;;
72882;SDS011;61017;37.812;-122.286;2023-10-09T02:18:45;2.88;;;1.63;;
72882;SDS011;61017;37.812;-122.286;2023-10-09T02:20:17;3.25;;;1.60;;
72882;SDS011;61017;37.812;-122.286;2023-10-09T02:21:49;2.05;;;1.50;;
72882;SDS011;61017;37.812;-122.286;2023-10-09T02:23:22;2.38;;;1.42;;
72882;SDS011;61017;37.812;-122.286;2023-10-09T02:24:57;2.75;;;1.60;;
72882;SDS011;61017;37.812;-122.286;2023-10-09T02:26:28;4.30;;;1.70;;
72882;SDS011;61017;37.812;-122.286;2023-10-09T02:28:00;2.58;;;1.42;;
72882;SDS011;61017;37.812;-122.286;2023-10-09T02:29:32;2.90;;;1.63;;
72882;SDS011;61017;37.812;-122.286;2023-10-09T02:31:10;2.15;;;1.50;;
72882;SDS011;61017;37.812;-122.286;2023-10-09T02:32:42;2.45;;;1.52;;
72882;SDS011;61017;37.812;-122.286;2023-10-09T02:34:14;2.80;;;1.58;;
72882;SDS011;61017;37.812;-122.286;2023-10-09T02:35:46;2.33;;;1.52;;
72882;SDS011;61017;37.812;-122.286;2023-10-09T02:37:17;2.20;;;1.50;;
72882;SDS011;61017;37.812;-122.286;2023-10-09T02:38:49;2.17;;;1.50;;
72882;SDS011;61017;37.812;-122.286;2023-10-09T02:40:21;2.40;;;1.60;;
72882;SDS011;61017;37.812;-122.286;2023-10-09T02:41:53;2.20;;;1.50;;
72882;SDS011;61017;37.812;-122.286;2023-10-09T02:43:25;4.28;;;1.77;;
72882;SDS011;61017;37.812;-122.286;2023-10-09T02:44:57;2.83;;;1.42;;
72882;SDS011;61017;37.812;-122.286;2023-10-09T02:46:29;2.78;;;1.40;;
72882;SDS011;61017;37.812;-122.286;2023-10-09T02:48:04;3.10;;;1.58;;
72882;SDS011;61017;37.812;-122.286;2023-10-09T02:49:36;2.53;;;1.55;;
72882;SDS011;61017;37.812;-122.286;2023-10-09T02:51:08;2.78;;;1.70;;
72882;SDS011;61017;37.812;-122.286;2023-10-09T02:52:40;2.33;;;1.63;;
72882;SDS011;61017;37.812;-122.286;2023-10-09T02:54:11;2.28;;;1.65;;
72882;SDS011;61017;37.812;-122.286;2023-10-09T02:55:43;4.32;;;1.70;;
72882;SDS011;61017;37.812;-122.286;2023-10-09T02:57:15;2.42;;;1.58;;
72882;SDS011;61017;37.812;-122.286;2023-10-09T02:58:46;1.88;;;1.38;;
72882;SDS011;61017;37.812;-122.286;2023-10-09T03:00:18;2.28;;;1.45;;
72882;SDS011;61017;37.812;-122.286;2023-10-09T03:01:49;2.58;;;1.60;;
72882;SDS011;61017;37.812;-122.286;2023-10-09T03:03:21;2.33;;;1.45;;
72882;SDS011;61017;37.812;-122.286;2023-10-09T03:04:53;2.53;;;1.60;;
72882;SDS011;61017;37.812;-122.286;2023-10-09T03:06:24;3.05;;;1.40;;
72882;SDS011;61017;37.812;-122.286;2023-10-09T03:07:56;5.55;;;1.65;;
72882;SDS011;61017;37.812;-122.286;2023-10-09T03:09:28;8.57;;;1.58;;
72882;SDS011;61017;37.812;-122.286;2023-10-09T03:10:59;4.28;;;1.45;;
72882;SDS011;61017;37.812;-122.286;2023-10-09T03:12:31;2.33;;;1.40;;
72882;SDS011;61017;37.812;-122.286;2023-10-09T03:14:02;4.85;;;1.52;;
72882;SDS011;61017;37.812;-122.286;2023-10-09T03:15:34;6.07;;;1.63;;
72882;SDS011;61017;37.812;-122.286;2023-10-09T03:17:05;9.88;;;1.42;;
72882;SDS011;61017;37.812;-122.286;2023-10-09T03:20:09;6.28;;;1.83;;
72882;SDS011;61017;37.812;-122.286;2023-10-09T03:21:41;6.20;;;1.80;;
72882;SDS011;61017;37.812;-122.286;2023-10-09T03:23:13;7.03;;;1.80;;
72882;SDS011;61017;37.812;-122.286;2023-10-09T03:24:45;6.53;;;1.90;;
72882;SDS011;61017;37.812;-122.286;2023-10-09T03:26:17;5.82;;;1.77;;
72882;SDS011;61017;37.812;-122.286;2023-10-09T03:29:20;6.00;;;1.60;;
72882;SDS011;61017;37.812;-122.286;2023-10-09T03:30:55;6.55;;;1.70;;
72882;SDS011;61017;37.812;-122.286;2023-10-09T03:32:26;4.00;;;1.67;;
72882;SDS011;61017;37.812;-122.286;2023-10-09T03:33:58;3.28;;;1.67;;
72882;SDS011;61017;37.812;-122.286;2023-10-09T03:35:30;6.28;;;1.65;;
72882;SDS011;61017;37.812;-122.286;2023-10-09T03:37:01;4.13;;;1.60;;
72882;SDS011;61017;37.812;-122.286;2023-10-09T03:38:33;2.90;;;1.33;;
72882;SDS011;61017;37.812;-122.286;2023-10-09T03:40:05;2.38;;;1.50;;
72882;SDS011;61017;37.812;-122.286;2023-10-09T03:41:37;4.75;;;1.60;;
72882;SDS011;61017;37.812;-122.286;2023-10-09T03:43:09;3.83;;;1.50;;
72882;SDS011;61017;37.812;-122.286;2023-10-09T03:44:41;4.80;;;1.45;;
72882;SDS011;61017;37.812;-122.286;2023-10-09T03:46:12;3.92;;;1.25;;
72882;SDS011;61017;37.812;-122.286;2023-10-09T03:47:44;3.70;;;1.60;;
72882;SDS011;61017;37.812;-122.286;2023-10-09T03:49:16;2.42;;;1.10;;
72882;SDS011;61017;37.812;-122.286;2023-10-09T03:50:48;2.47;;;1.50;;
72882;SDS011;61017;37.812;-122.286;2023-10-09T03:53:52;3.63;;;1.50;;
72882;SDS011;61017;37.812;-122.286;2023-10-09T03:55:23;2.60;;;1.30;;
72882;SDS011;61017;37.812;-122.286;2023-10-09T03:56:55;2.67;;;1.45;;
72882;SDS011;61017;37.812;-122.286;2023-10-09T03:58:26;1.95;;;1.20;;
72882;SDS011;61017;37.812;-122.286;2023-10-09T03:59:58;2.85;;;1.40;;
72882;SDS011;61017;37.812;-122.286;2023-10-09T04:01:29;3.95;;;1.42;;
72882;SDS011;61017;37.812;-122.286;2023-10-09T04:03:02;3.70;;;1.40;;
72882;SDS011;61017;37.812;-122.286;2023-10-09T04:04:34;3.78;;;1.30;;
72882;SDS011;61017;37.812;-122.286;2023-10-09T04:06:06;2.75;;;1.23;;
72882;SDS011;61017;37.812;-122.286;2023-10-09T04:07:37;3.55;;;1.30;;
72882;SDS011;61017;37.812;-122.286;2023-10-09T04:09:10;3.38;;;1.25;;
72882;SDS011;61017;37.812;-122.286;2023-10-09T04:10:41;4.82;;;1.40;;
72882;SDS011;61017;37.812;-122.286;2023-10-09T04:12:13;3.28;;;1.40;;
72882;SDS011;61017;37.812;-122.286;2023-10-09T04:13:45;2.63;;;1.20;;
72882;SDS011;61017;37.812;-122.286;2023-10-09T04:15:16;2.03;;;1.30;;
72882;SDS011;61017;37.812;-122.286;2023-10-09T04:16:51;3.42;;;1.38;;
72882;SDS011;61017;37.812;-122.286;2023-10-09T04:18:22;1.92;;;1.20;;
72882;SDS011;61017;37.812;-122.286;2023-10-09T04:19:54;2.53;;;1.33;;
72882;SDS011;61017;37.812;-122.286;2023-10-09T04:21:26;1.98;;;1.30;;
72882;SDS011;61017;37.812;-122.286;2023-10-09T04:22:58;2.72;;;1.20;;
72882;SDS011;61017;37.812;-122.286;2023-10-09T04:24:29;2.17;;;1.10;;
72882;SDS011;61017;37.812;-122.286;2023-10-09T04:26:01;3.20;;;1.20;;
72882;SDS011;61017;37.812;-122.286;2023-10-09T04:27:33;2.72;;;1.10;;
72882;SDS011;61017;37.812;-122.286;2023-10-09T04:29:04;2.53;;;1.30;;
72882;SDS011;61017;37.812;-122.286;2023-10-09T04:30:36;1.92;;;1.10;;
72882;SDS011;61017;37.812;-122.286;2023-10-09T04:32:11;2.33;;;1.40;;
72882;SDS011;61017;37.812;-122.286;2023-10-09T04:33:43;2.03;;;1.20;;
72882;SDS011;61017;37.812;-122.286;2023-10-09T04:35:14;2.53;;;1.05;;
72882;SDS011;61017;37.812;-122.286;2023-10-09T04:36:46;2.72;;;1.20;;
72882;SDS011;61017;37.812;-122.286;2023-10-09T04:38:17;2.25;;;1.20;;
72882;SDS011;61017;37.812;-122.286;2023-10-09T04:39:49;2.33;;;1.10;;
72882;SDS011;61017;37.812;-122.286;2023-10-09T04:41:21;1.60;;;1.23;;
72882;SDS011;61017;37.812;-122.286;2023-10-09T04:42:53;1.90;;;1.10;;
72882;SDS011;61017;37.812;-122.286;2023-10-09T04:44:25;1.88;;;1.15;;
72882;SDS011;61017;37.812;-122.286;2023-10-09T04:45:58;1.55;;;1.20;;
72882;SDS011;61017;37.812;-122.286;2023-10-09T04:47:30;2.30;;;1.20;;
72882;SDS011;61017;37.812;-122.286;2023-10-09T04:49:09;2.67;;;1.15;;
72882;SDS011;61017;37.812;-122.286;2023-10-09T04:50:41;3.75;;;1.23;;
72882;SDS011;61017;37.812;-122.286;2023-10-09T04:52:16;1.40;;;1.00;;
72882;SDS011;61017;37.812;-122.286;2023-10-09T04:53:48;1.75;;;1.10;;
72882;SDS011;61017;37.812;-122.286;2023-10-09T04:55:20;2.03;;;1.35;;
72882;SDS011;61017;37.812;-122.286;2023-10-09T04:56:52;2.47;;;1.20;;
72882;SDS011;61017;37.812;-122.286;2023-10-09T04:58:24;3.45;;;1.40;;
72882;SDS011;61017;37.812;-122.286;2023-10-09T04:59:56;2.13;;;1.10;;
72882;SDS011;61017;37.812;-122.286;2023-10-09T05:01:28;2.78;;;1.50;;
72882;SDS011;61017;37.812;-122.286;2023-10-09T05:03:01;2.15;;;1.20;;
72882;SDS011;61017;37.812;-122.286;2023-10-09T05:04:34;2.55;;;1.23;;
72882;SDS011;61017;37.812;-122.286;2023-10-09T05:06:05;1.90;;;1.23;;
72882;SDS011;61017;37.812;-122.286;2023-10-09T05:07:37;1.98;;;1.30;;
72882;SDS011;61017;37.812;-122.286;2023-10-09T05:09:10;2.40;;;1.20;;
72882;SDS011;61017;37.812;-122.286;2023-10-09T05:10:41;2.53;;;1.30;;
72882;SDS011;61017;37.812;-122.286;2023-10-09T05:12:13;2.53;;;1.30;;
72882;SDS011;61017;37.812;-122.286;2023-10-09T05:15:17;3.30;;;1.10;;
72882;SDS011;61017;37.812;-122.286;2023-10-09T05:16:48;4.05;;;1.40;;
72882;SDS011;61017;37.812;-122.286;2023-10-09T05:18:20;2.17;;;1.30;;
72882;SDS011;61017;37.812;-122.286;2023-10-09T05:19:52;1.65;;;1.20;;
72882;SDS011;61017;37.812;-122.286;2023-10-09T05:21:23;2.78;;;1.40;;
72882;SDS011;61017;37.812;-122.286;2023-10-09T05:23:00;2.55;;;1.30;;
72882;SDS011;61017;37.812;-122.286;2023-10-09T05:24:32;1.60;;;1.10;;
72882;SDS011;61017;37.812;-122.286;2023-10-09T05:26:05;2.33;;;1.20;;
72882;SDS011;61017;37.812;-122.286;2023-10-09T05:27:36;2.28;;;1.40;;
72882;SDS011;61017;37.812;-122.286;2023-10-09T05:29:08;2.40;;;1.10;;
72882;SDS011;61017;37.812;-122.286;2023-10-09T05:30:39;2.45;;;1.30;;
72882;SDS011;61017;37.812;-122.286;2023-10-09T05:32:11;2.17;;;1.13;;
72882;SDS011;61017;37.812;-122.286;2023-10-09T05:33:43;2.05;;;1.20;;
72882;SDS011;61017;37.812;-122.286;2023-10-09T05:35:14;2.25;;;1.20;;
72882;SDS011;61017;37.812;-122.286;2023-10-09T05:36:46;2.25;;;1.35;;
72882;SDS011;61017;37.812;-122.286;2023-10-09T05:38:19;3.47;;;1.30;;
72882;SDS011;61017;37.812;-122.286;2023-10-09T05:39:53;2.70;;;1.30;;
72882;SDS011;61017;37.812;-122.286;2023-10-09T05:41:26;1.92;;;1.30;;
72882;SDS011;61017;37.812;-122.286;2023-10-09T05:42:58;1.73;;;1.10;;
72882;SDS011;61017;37.812;-122.286;2023-10-09T05:44:30;2.67;;;1.33;;
72882;SDS011;61017;37.812;-122.286;2023-10-09T05:46:01;1.80;;;1.23;;
72882;SDS011;61017;37.812;-122.286;2023-10-09T05:47:34;3.90;;;1.73;;
72882;SDS011;61017;37.812;-122.286;2023-10-09T05:49:05;3.22;;;1.27;;
72882;SDS011;61017;37.812;-122.286;2023-10-09T05:50:40;2.10;;;1.30;;
72882;SDS011;61017;37.812;-122.286;2023-10-09T05:52:12;2.60;;;1.20;;
72882;SDS011;61017;37.812;-122.286;2023-10-09T05:53:44;3.05;;;1.52;;
72882;SDS011;61017;37.812;-122.286;2023-10-09T05:55:16;1.90;;;1.23;;
72882;SDS011;61017;37.812;-122.286;2023-10-09T05:56:47;1.85;;;1.30;;
72882;SDS011;61017;37.812;-122.286;2023-10-09T05:58:19;2.40;;;1.25;;
72882;SDS011;61017;37.812;-122.286;2023-10-09T05:59:51;2.08;;;1.40;;
72882;SDS011;61017;37.812;-122.286;2023-10-09T06:01:22;2.33;;;1.40;;
72882;SDS011;61017;37.812;-122.286;2023-10-09T06:02:54;2.65;;;1.30;;
72882;SDS011;61017;37.812;-122.286;2023-10-09T06:04:25;2.03;;;1.30;;
72882;SDS011;61017;37.812;-122.286;2023-10-09T06:05:57;2.38;;;1.30;;
72882;SDS011;61017;37.812;-122.286;2023-10-09T06:07:28;2.05;;;1.30;;
72882;SDS011;61017;37.812;-122.286;2023-10-09T06:09:01;2.20;;;1.40;;
72882;SDS011;61017;37.812;-122.286;2023-10-09T06:10:33;2.55;;;1.20;;
72882;SDS011;61017;37.812;-122.286;2023-10-09T06:12:08;2.28;;;1.20;;
72882;SDS011;61017;37.812;-122.286;2023-10-09T06:13:40;1.70;;;1.30;;
72882;SDS011;61017;37.812;-122.286;2023-10-09T06:15:12;2.35;;;1.25;;
72882;SDS011;61017;37.812;-122.286;2023-10-09T06:16:43;1.92;;;1.30;;
72882;SDS011;61017;37.812;-122.286;2023-10-09T06:18:15;1.98;;;1.30;;
72882;SDS011;61017;37.812;-122.286;2023-10-09T06:19:46;2.42;;;1.15;;
72882;SDS011;61017;37.812;-122.286;2023-10-09T06:21:18;1.92;;;1.17;;
72882;SDS011;61017;37.812;-122.286;2023-10-09T06:22:49;2.55;;;1.27;;
72882;SDS011;61017;37.812;-122.286;2023-10-09T06:24:24;1.95;;;1.17;;
72882;SDS011;61017;37.812;-122.286;2023-10-09T06:25:56;2.72;;;1.30;;
72882;SDS011;61017;37.812;-122.286;2023-10-09T06:27:27;1.75;;;1.17;;
72882;SDS011;61017;37.812;-122.286;2023-10-09T06:28:59;2.08;;;1.30;;
72882;SDS011;61017;37.812;-122.286;2023-10-09T06:30:31;2.42;;;1.38;;
72882;SDS011;61017;37.812;-122.286;2023-10-09T06:32:06;1.88;;;1.23;;
72882;SDS011;61017;37.812;-122.286;2023-10-09T06:33:40;1.98;;;1.20;;
72882;SDS011;61017;37.812;-122.286;2023-10-09T06:35:12;2.58;;;1.33;;
72882;SDS011;61017;37.812;-122.286;2023-10-09T06:36:44;1.92;;;1.20;;
72882;SDS011;61017;37.812;-122.286;2023-10-09T06:38:15;3.60;;;1.30;;
72882;SDS011;61017;37.812;-122.286;2023-10-09T06:39:47;1.92;;;1.13;;
72882;SDS011;61017;37.812;-122.286;2023-10-09T06:41:24;1.52;;;1.10;;
72882;SDS011;61017;37.812;-122.286;2023-10-09T06:42:56;2.15;;;1.27;;
72882;SDS011;61017;37.812;-122.286;2023-10-09T06:44:28;2.78;;;1.27;;
72882;SDS011;61017;37.812;-122.286;2023-10-09T06:46:00;2.22;;;1.23;;
72882;SDS011;61017;37.812;-122.286;2023-10-09T06:47:31;2.75;;;1.30;;
72882;SDS011;61017;37.812;-122.286;2023-10-09T06:49:03;2.65;;;1.38;;
72882;SDS011;61017;37.812;-122.286;2023-10-09T06:50:36;2.38;;;1.40;;
72882;SDS011;61017;37.812;-122.286;2023-10-09T06:52:07;3.05;;;1.20;;
72882;SDS011;61017;37.812;-122.286;2023-10-09T06:53:39;2.30;;;1.40;;
72882;SDS011;61017;37.812;-122.286;2023-10-09T06:55:11;1.70;;;1.00;;
72882;SDS011;61017;37.812;-122.286;2023-10-09T06:56:42;2.33;;;1.30;;
72882;SDS011;61017;37.812;-122.286;2023-10-09T06:58:17;2.22;;;1.40;;
72882;SDS011;61017;37.812;-122.286;2023-10-09T06:59:49;2.03;;;1.17;;
72882;SDS011;61017;37.812;-122.286;2023-10-09T07:01:21;3.13;;;1.30;;
72882;SDS011;61017;37.812;-122.286;2023-10-09T07:02:53;1.85;;;1.23;;
72882;SDS011;61017;37.812;-122.286;2023-10-09T07:04:24;2.45;;;1.33;;
72882;SDS011;61017;37.812;-122.286;2023-10-09T07:06:03;2.15;;;1.25;;
72882;SDS011;61017;37.812;-122.286;2023-10-09T07:07:35;2.70;;;1.30;;
72882;SDS011;61017;37.812;-122.286;2023-10-09T07:09:07;2.15;;;1.42;;
72882;SDS011;61017;37.812;-122.286;2023-10-09T07:10:38;2.85;;;1.52;;
72882;SDS011;61017;37.812;-122.286;2023-10-09T07:12:10;2.60;;;1.30;;
72882;SDS011;61017;37.812;-122.286;2023-10-09T07:13:42;1.85;;;1.33;;
72882;SDS011;61017;37.812;-122.286;2023-10-09T07:15:13;1.83;;;1.17;;
72882;SDS011;61017;37.812;-122.286;2023-10-09T07:16:45;2.10;;;1.10;;
72882;SDS011;61017;37.812;-122.286;2023-10-09T07:18:16;2.28;;;1.33;;
72882;SDS011;61017;37.812;-122.286;2023-10-09T07:19:51;2.97;;;1.30;;
72882;SDS011;61017;37.812;-122.286;2023-10-09T07:21:24;3.55;;;1.50;;
72882;SDS011;61017;37.812;-122.286;2023-10-09T07:22:57;2.45;;;1.20;;
72882;SDS011;61017;37.812;-122.286;2023-10-09T07:24:31;2.60;;;1.50;;
72882;SDS011;61017;37.812;-122.286;2023-10-09T07:26:03;2.95;;;1.45;;
72882;SDS011;61017;37.812;-122.286;2023-10-09T07:27:35;2.38;;;1.30;;
72882;SDS011;61017;37.812;-122.286;2023-10-09T07:29:07;3.28;;;1.48;;
72882;SDS011;61017;37.812;-122.286;2023-10-09T07:30:38;3.30;;;1.40;;
72882;SDS011;61017;37.812;-122.286;2023-10-09T07:32:10;2.40;;;1.40;;
72882;SDS011;61017;37.812;-122.286;2023-10-09T07:33:41;1.95;;;1.33;;
72882;SDS011;61017;37.812;-122.286;2023-10-09T07:35:13;3.08;;;1.30;;
72882;SDS011;61017;37.812;-122.286;2023-10-09T07:36:45;2.28;;;1.20;;
72882;SDS011;61017;37.812;-122.286;2023-10-09T07:38:17;3.72;;;1.60;;
72882;SDS011;61017;37.812;-122.286;2023-10-09T07:39:54;1.90;;;1.40;;
72882;SDS011;61017;37.812;-122.286;2023-10-09T07:41:29;2.10;;;1.27;;
72882;SDS011;61017;37.812;-122.286;2023-10-09T07:43:01;1.88;;;1.20;;
72882;SDS011;61017;37.812;-122.286;2023-10-09T07:44:33;2.97;;;1.42;;
72882;SDS011;61017;37.812;-122.286;2023-10-09T07:46:05;2.50;;;1.33;;
72882;SDS011;61017;37.812;-122.286;2023-10-09T07:47:37;2.00;;;1.48;;
72882;SDS011;61017;37.812;-122.286;2023-10-09T07:49:09;1.80;;;1.23;;
72882;SDS011;61017;37.812;-122.286;2023-10-09T07:50:40;2.67;;;1.30;;
72882;SDS011;61017;37.812;-122.286;2023-10-09T07:52:12;3.15;;;1.20;;
72882;SDS011;61017;37.812;-122.286;2023-10-09T07:53:43;3.10;;;1.30;;
72882;SDS011;61017;37.812;-122.286;2023-10-09T07:55:16;3.13;;;1.60;;
72882;SDS011;61017;37.812;-122.286;2023-10-09T07:58:20;2.17;;;1.40;;
72882;SDS011;61017;37.812;-122.286;2023-10-09T07:59:53;3.42;;;1.48;;
72882;SDS011;61017;37.812;-122.286;2023-10-09T08:01:24;4.03;;;1.33;;
72882;SDS011;61017;37.812;-122.286;2023-10-09T08:02:56;2.50;;;1.30;;
72882;SDS011;61017;37.812;-122.286;2023-10-09T08:04:28;2.38;;;1.35;;
72882;SDS011;61017;37.812;-122.286;2023-10-09T08:06:00;2.70;;;1.57;;
72882;SDS011;61017;37.812;-122.286;2023-10-09T08:07:33;2.70;;;1.50;;
72882;SDS011;61017;37.812;-122.286;2023-10-09T08:09:11;3.57;;;1.47;;
72882;SDS011;61017;37.812;-122.286;2023-10-09T08:10:42;2.70;;;1.48;;
72882;SDS011;61017;37.812;-122.286;2023-10-09T08:12:14;2.70;;;1.40;;
72882;SDS011;61017;37.812;-122.286;2023-10-09T08:13:46;2.67;;;1.42;;
72882;SDS011;61017;37.812;-122.286;2023-10-09T08:15:18;3.10;;;1.45;;
72882;SDS011;61017;37.812;-122.286;2023-10-09T08:16:50;2.50;;;1.35;;
72882;SDS011;61017;37.812;-122.286;2023-10-09T08:18:22;2.40;;;1.38;;
72882;SDS011;61017;37.812;-122.286;2023-10-09T08:19:56;2.20;;;1.40;;
72882;SDS011;61017;37.812;-122.286;2023-10-09T08:21:28;1.92;;;1.30;;
72882;SDS011;61017;37.812;-122.286;2023-10-09T08:22:59;2.03;;;1.38;;
72882;SDS011;61017;37.812;-122.286;2023-10-09T08:24:31;2.85;;;1.45;;
72882;SDS011;61017;37.812;-122.286;2023-10-09T08:26:03;2.20;;;1.40;;
72882;SDS011;61017;37.812;-122.286;2023-10-09T08:27:35;3.17;;;1.48;;
72882;SDS011;61017;37.812;-122.286;2023-10-09T08:29:06;3.15;;;1.50;;
72882;SDS011;61017;37.812;-122.286;2023-10-09T08:30:38;2.70;;;1.30;;
72882;SDS011;61017;37.812;-122.286;2023-10-09T08:32:09;2.70;;;1.40;;
72882;SDS011;61017;37.812;-122.286;2023-10-09T08:33:41;2.53;;;1.27;;
72882;SDS011;61017;37.812;-122.286;2023-10-09T08:35:12;2.70;;;1.38;;
72882;SDS011;61017;37.812;-122.286;2023-10-09T08:36:44;2.65;;;1.50;;
72882;SDS011;61017;37.812;-122.286;2023-10-09T08:38:16;2.50;;;1.33;;
72882;SDS011;61017;37.812;-122.286;2023-10-09T08:39:48;2.65;;;1.63;;
72882;SDS011;61017;37.812;-122.286;2023-10-09T08:41:20;2.58;;;1.40;;
72882;SDS011;61017;37.812;-122.286;2023-10-09T08:42:52;2.90;;;1.40;;
72882;SDS011;61017;37.812;-122.286;2023-10-09T08:44:25;2.20;;;1.40;;
72882;SDS011;61017;37.812;-122.286;2023-10-09T08:47:29;2.15;;;1.27;;
72882;SDS011;61017;37.812;-122.286;2023-10-09T08:49:01;2.47;;;1.40;;
72882;SDS011;61017;37.812;-122.286;2023-10-09T08:50:33;3.03;;;1.40;;
72882;SDS011;61017;37.812;-122.286;2023-10-09T08:52:06;3.65;;;1.50;;
72882;SDS011;61017;37.812;-122.286;2023-10-09T08:53:38;2.20;;;1.40;;
72882;SDS011;61017;37.812;-122.286;2023-10-09T08:55:10;2.50;;;1.40;;
72882;SDS011;61017;37.812;-122.286;2023-10-09T08:56:42;2.90;;;1.58;;
72882;SDS011;61017;37.812;-122.286;2023-10-09T08:58:17;2.78;;;1.40;;
72882;SDS011;61017;37.812;-122.286;2023-10-09T08:59:49;2.85;;;1.40;;
72882;SDS011;61017;37.812;-122.286;2023-10-09T09:01:20;2.55;;;1.48;;